createdAt,value
2023-05-07T00:01:37.956Z,19.05
2023-05-07T00:04:08.888Z,18.95
2023-05-07T00:06:38.316Z,18.57
2023-05-07T00:09:08.568Z,19.20
2023-05-07T00:11:38.032Z,18.77
2023-05-07T00:14:07.327Z,19.42
2023-05-07T00:16:36.819Z,17.98
2023-05-07T00:19:06.372Z,19.12
2023-05-07T00:21:35.666Z,18.95
2023-05-07T00:24:05.349Z,19.20
2023-05-07T00:26:34.722Z,18.30
2023-05-07T00:29:04.365Z,18.90
2023-05-07T00:31:33.737Z,19.62
2023-05-07T00:34:03.477Z,18.25
2023-05-07T00:36:32.771Z,18.02
2023-05-07T00:39:04.668Z,18.67
2023-05-07T00:41:34.121Z,18.12
2023-05-07T00:44:03.408Z,17.77
2023-05-07T00:46:33.243Z,16.97
2023-05-07T00:49:03.794Z,17.60
2023-05-07T00:51:34.121Z,17.32
2023-05-07T00:54:04.727Z,16.97
2023-05-07T00:56:34.488Z,15.08
2023-05-07T00:59:04.724Z,15.63
2023-05-07T01:01:34.486Z,15.65
2023-05-07T01:04:04.198Z,14.85
2023-05-07T01:06:34.638Z,14.80
2023-05-07T01:09:05.708Z,14.35
2023-05-07T01:11:35.382Z,14.65
2023-05-07T01:14:05.228Z,15.05
2023-05-07T01:16:35.386Z,14.93
2023-05-07T01:19:04.813Z,15.20
2023-05-07T01:21:36.067Z,14.53
2023-05-07T01:24:07.479Z,14.45
2023-05-07T01:26:36.873Z,14.30
2023-05-07T01:29:06.625Z,14.43
2023-05-07T01:31:37.597Z,14.03
2023-05-07T01:34:07.671Z,14.40
2023-05-07T01:36:39.207Z,14.70
2023-05-07T01:39:09.434Z,14.80
2023-05-07T01:41:39.739Z,14.93
2023-05-07T01:44:10.329Z,14.87
2023-05-07T01:46:39.894Z,14.90
2023-05-07T01:49:09.504Z,14.23
2023-05-07T01:51:38.828Z,15.18
2023-05-07T01:54:09.395Z,14.18
2023-05-07T01:56:39.310Z,16.07
2023-05-07T01:59:08.938Z,15.18
2023-05-07T02:01:38.273Z,15.10
2023-05-07T02:04:08.087Z,15.08
2023-05-07T02:06:37.978Z,15.35
2023-05-07T02:09:09.999Z,15.48
2023-05-07T02:11:41.005Z,15.13
2023-05-07T02:14:10.380Z,14.55
2023-05-07T02:16:39.743Z,14.80
2023-05-07T02:19:09.529Z,14.47
2023-05-07T02:21:38.810Z,14.68
2023-05-07T02:24:08.585Z,15.30
2023-05-07T02:26:37.989Z,15.88
2023-05-07T02:29:07.566Z,14.95
2023-05-07T02:31:37.457Z,15.30
2023-05-07T02:34:07.204Z,15.48
2023-05-07T02:36:36.481Z,15.53
2023-05-07T02:39:07.858Z,15.93
2023-05-07T02:41:37.851Z,16.52
2023-05-07T02:44:07.249Z,16.20
2023-05-07T02:46:37.649Z,16.60
2023-05-07T02:49:08.943Z,17.02
2023-05-07T02:51:38.422Z,17.12
2023-05-07T02:54:09.467Z,17.23
2023-05-07T02:56:38.786Z,16.65
2023-05-07T02:59:08.396Z,17.75
2023-05-07T03:01:39.440Z,17.45
2023-05-07T03:04:10.691Z,18.15
2023-05-07T03:06:40.053Z,17.55
2023-05-07T03:09:09.703Z,16.97
2023-05-07T03:11:39.305Z,17.80
2023-05-07T03:14:08.629Z,16.97
2023-05-07T03:16:38.235Z,17.30
2023-05-07T03:19:07.604Z,17.92
2023-05-07T03:21:36.991Z,17.95
2023-05-07T03:24:06.977Z,17.45
2023-05-07T03:26:36.397Z,17.15
2023-05-07T03:29:06.712Z,16.30
2023-05-07T03:31:36.209Z,17.57
2023-05-07T03:34:06.018Z,17.23
2023-05-07T03:36:35.265Z,18.37
2023-05-07T03:39:05.894Z,18.42
2023-05-07T03:41:37.144Z,18.62
2023-05-07T03:44:06.987Z,18.75
2023-05-07T03:46:37.004Z,18.90
2023-05-07T03:49:06.462Z,19.92
2023-05-07T03:51:37.115Z,18.65
2023-05-07T03:54:07.460Z,18.23
2023-05-07T03:56:37.368Z,19.02
2023-05-07T03:59:06.694Z,18.50
2023-05-07T04:01:37.274Z,18.98
2023-05-07T04:04:06.779Z,18.57
2023-05-07T04:06:37.527Z,18.80
2023-05-07T04:09:07.556Z,17.95
2023-05-07T04:11:38.386Z,18.30
2023-05-07T04:14:08.445Z,17.98
2023-05-07T04:16:38.274Z,17.50
2023-05-07T04:19:08.737Z,17.75
2023-05-07T04:21:38.712Z,17.80
2023-05-07T04:24:08.636Z,16.90
2023-05-07T04:26:38.297Z,18.62
2023-05-07T04:29:08.246Z,18.10
2023-05-07T04:31:37.841Z,19.05
2023-05-07T04:34:08.259Z,19.73
2023-05-07T04:36:37.983Z,20.12
2023-05-07T04:39:09.069Z,19.73
2023-05-07T04:41:38.845Z,20.20
2023-05-07T04:44:10.460Z,20.23
2023-05-07T04:46:40.377Z,19.87
2023-05-07T04:49:10.033Z,20.37
2023-05-07T04:51:39.597Z,19.07
2023-05-07T04:54:09.170Z,20.05
2023-05-07T04:56:38.907Z,19.82
2023-05-07T04:59:08.240Z,19.27
2023-05-07T05:01:39.194Z,19.75
2023-05-07T05:04:09.090Z,19.55
2023-05-07T05:06:38.562Z,19.50
2023-05-07T05:09:08.180Z,21.45
2023-05-07T05:11:37.883Z,21.27
2023-05-07T05:14:07.147Z,20.82
2023-05-07T05:16:37.056Z,20.57
2023-05-07T05:19:08.481Z,20.60
2023-05-07T05:21:39.223Z,21.07
2023-05-07T05:24:10.737Z,21.00
2023-05-07T05:26:41.484Z,20.95
2023-05-07T05:29:11.321Z,21.10
2023-05-07T05:31:42.815Z,22.22
2023-05-07T05:34:12.805Z,21.82
2023-05-07T05:36:43.617Z,21.55
2023-05-07T05:39:13.722Z,22.73
2023-05-07T05:41:43.572Z,22.00
2023-05-07T05:44:14.286Z,22.95
2023-05-07T05:46:44.240Z,22.35
2023-05-07T05:49:13.992Z,22.42
2023-05-07T05:51:44.728Z,23.07
2023-05-07T05:54:16.174Z,22.95
2023-05-07T05:56:45.966Z,23.18
2023-05-07T05:59:15.608Z,24.23
2023-05-07T06:01:45.620Z,23.22
2023-05-07T06:04:15.001Z,23.47
2023-05-07T06:06:44.581Z,24.05
2023-05-07T06:09:14.314Z,23.52
2023-05-07T06:11:45.066Z,23.90
2023-05-07T06:14:14.821Z,23.90
2023-05-07T06:16:45.051Z,24.70
2023-05-07T06:19:14.493Z,23.05
2023-05-07T06:21:44.330Z,25.23
2023-05-07T06:24:14.058Z,24.25
2023-05-07T06:26:43.850Z,23.30
2023-05-07T06:29:13.454Z,23.65
2023-05-07T06:31:43.380Z,23.77
2023-05-07T06:34:14.770Z,23.30
2023-05-07T06:36:44.407Z,23.67
2023-05-07T06:39:15.518Z,23.85
2023-05-07T06:41:46.206Z,23.75
2023-05-07T06:44:17.220Z,24.17
2023-05-07T06:46:48.387Z,23.75
2023-05-07T06:49:19.066Z,25.20
2023-05-07T06:51:50.083Z,24.82
2023-05-07T06:54:21.749Z,26.02
2023-05-07T06:56:51.279Z,25.88
2023-05-07T06:59:21.498Z,25.27
2023-05-07T07:01:51.019Z,25.17
2023-05-07T07:04:20.610Z,24.67
2023-05-07T07:06:51.642Z,24.75
2023-05-07T07:09:23.387Z,24.67
2023-05-07T07:11:52.768Z,24.67
2023-05-07T07:14:22.404Z,24.98
2023-05-07T07:16:53.091Z,24.00
2023-05-07T07:19:23.060Z,23.75
2023-05-07T07:21:54.200Z,23.18
2023-05-07T07:24:24.115Z,22.42
2023-05-07T07:26:56.544Z,22.62
2023-05-07T07:29:27.826Z,22.00
2023-05-07T07:31:57.326Z,23.27
2023-05-07T07:34:27.190Z,23.35
2023-05-07T07:36:57.210Z,23.47
2023-05-07T07:39:27.078Z,22.67
2023-05-07T07:41:57.460Z,23.42
2023-05-07T07:44:27.780Z,23.38
2023-05-07T07:46:58.831Z,23.42
2023-05-07T07:49:29.336Z,23.35
2023-05-07T07:52:00.682Z,22.82
2023-05-07T07:54:30.389Z,22.15
2023-05-07T07:57:00.814Z,21.73
2023-05-07T07:59:31.075Z,21.23
2023-05-07T08:02:00.939Z,21.97
2023-05-07T08:04:33.127Z,21.35
2023-05-07T08:07:04.549Z,21.65
2023-05-07T08:09:34.508Z,21.82
2023-05-07T08:12:05.093Z,21.60
2023-05-07T08:14:35.853Z,21.33
2023-05-07T08:17:06.564Z,22.90
2023-05-07T08:19:36.427Z,22.35
2023-05-07T08:22:06.722Z,21.45
2023-05-07T08:24:36.149Z,20.72
2023-05-07T08:27:05.657Z,20.52
2023-05-07T08:29:35.357Z,20.85
2023-05-07T08:32:05.174Z,20.48
2023-05-07T08:34:34.721Z,20.12
2023-05-07T08:37:05.818Z,20.23
2023-05-07T08:39:36.163Z,19.52
2023-05-07T08:42:06.681Z,19.82
2023-05-07T08:44:38.220Z,19.05
2023-05-07T08:47:09.224Z,19.37
2023-05-07T08:49:40.545Z,19.42
2023-05-07T08:52:10.354Z,18.15
2023-05-07T08:54:40.216Z,18.25
2023-05-07T08:57:10.113Z,17.20
2023-05-07T08:59:39.634Z,17.17
2023-05-07T09:02:11.149Z,16.52
2023-05-07T09:04:41.218Z,16.35
2023-05-07T09:07:11.093Z,15.98
2023-05-07T09:09:42.070Z,15.40
2023-05-07T09:12:11.519Z,17.57
2023-05-07T09:14:41.205Z,16.65
2023-05-07T09:17:10.732Z,15.93
2023-05-07T09:19:40.579Z,15.30
2023-05-07T09:22:10.400Z,15.20
2023-05-07T09:24:41.949Z,15.55
2023-05-07T09:27:13.637Z,15.13
2023-05-07T09:29:46.072Z,14.85
2023-05-07T09:32:17.277Z,15.30
2023-05-07T09:34:48.376Z,14.63
2023-05-07T09:37:19.013Z,14.50
2023-05-07T09:39:50.771Z,13.85
2023-05-07T09:42:27.737Z,13.72
2023-05-07T09:44:59.291Z,13.62
2023-05-07T09:47:32.297Z,12.37
2023-05-07T09:50:03.964Z,15.20
2023-05-07T09:52:34.987Z,13.40
2023-05-07T09:55:07.094Z,12.18
2023-05-07T09:57:37.000Z,11.68
2023-05-07T10:00:09.750Z,11.30
2023-05-07T10:02:54.403Z,10.95
2023-05-07T10:05:26.955Z,10.35
2023-05-07T10:07:58.294Z,10.75
2023-05-07T10:10:29.576Z,11.22
2023-05-07T10:12:59.730Z,15.13
2023-05-07T10:15:31.483Z,11.23
2023-05-07T10:18:01.927Z,9.70
2023-05-07T10:20:32.161Z,10.43
2023-05-07T10:23:06.533Z,10.48
2023-05-07T10:25:37.625Z,10.95
2023-05-07T10:28:10.496Z,10.10
2023-05-07T10:30:43.973Z,9.50
2023-05-07T10:33:15.866Z,8.45
2023-05-07T10:35:47.113Z,9.23
2023-05-07T10:38:17.229Z,8.73
2023-05-07T10:40:47.917Z,7.95
2023-05-07T10:43:19.599Z,8.18
2023-05-07T10:46:19.623Z,7.90
2023-05-07T10:49:07.564Z,8.60
2023-05-07T10:52:16.270Z,8.40
2023-05-07T10:54:53.331Z,9.00
2023-05-07T10:57:37.028Z,7.17
2023-05-07T11:03:07.937Z,6.65
2023-05-07T11:05:45.265Z,7.22
2023-05-07T11:08:22.003Z,7.90
2023-05-07T11:11:00.942Z,8.83
2023-05-07T11:13:49.682Z,9.08
2023-05-07T11:16:25.001Z,8.28
2023-05-07T11:18:59.206Z,8.73
2023-05-07T11:21:40.983Z,8.70
2023-05-07T11:24:16.510Z,10.58
2023-05-07T11:26:51.633Z,10.50
2023-05-07T11:29:23.822Z,11.03
2023-05-07T11:32:02.060Z,10.53
2023-05-07T11:34:33.585Z,10.98
2023-05-07T11:37:03.410Z,11.20
2023-05-07T11:39:37.477Z,11.50
2023-05-07T11:42:06.758Z,11.12
2023-05-07T11:44:45.291Z,11.68
2023-05-07T11:47:22.421Z,14.93
2023-05-07T11:49:53.841Z,13.43
2023-05-07T11:52:24.781Z,13.40
2023-05-07T11:54:58.964Z,14.35
2023-05-07T11:57:29.050Z,13.20
2023-05-07T12:00:01.893Z,14.60
2023-05-07T12:02:33.249Z,14.18
2023-05-07T12:05:03.779Z,14.58
2023-05-07T12:07:34.851Z,12.82
2023-05-07T12:10:09.326Z,12.95
2023-05-07T12:12:43.317Z,12.28
2023-05-07T12:15:13.292Z,14.20
2023-05-07T12:17:43.271Z,14.38
2023-05-07T12:20:13.136Z,14.10
2023-05-07T12:22:43.150Z,13.72
2023-05-07T12:25:12.793Z,15.63
2023-05-07T12:27:43.011Z,15.38
2023-05-07T12:30:13.661Z,15.38
2023-05-07T12:32:42.996Z,14.25
2023-05-07T12:35:12.603Z,12.93
2023-05-07T12:37:43.271Z,13.00
2023-05-07T12:40:13.808Z,14.07
2023-05-07T12:42:44.393Z,15.25
2023-05-07T12:45:15.365Z,16.48
2023-05-07T12:47:48.705Z,15.40
2023-05-07T12:50:18.663Z,16.27
2023-05-07T12:52:51.244Z,16.37
2023-05-07T12:57:52.573Z,15.05
2023-05-07T13:00:40.953Z,15.48
2023-05-07T13:03:10.374Z,14.85
2023-05-07T13:05:39.727Z,15.28
2023-05-07T13:08:10.936Z,15.38
2023-05-07T13:10:40.362Z,14.73
2023-05-07T13:13:09.793Z,14.25
2023-05-07T13:15:39.729Z,14.23
2023-05-07T13:18:09.088Z,14.47
2023-05-07T13:20:38.556Z,14.60
2023-05-07T13:23:08.473Z,13.88
2023-05-07T13:25:39.190Z,13.58
2023-05-07T13:28:11.144Z,13.05
2023-05-07T13:30:41.960Z,12.80
2023-05-07T13:33:11.707Z,11.95
2023-05-07T13:35:41.532Z,12.13
2023-05-07T13:38:11.062Z,11.63
2023-05-07T13:40:40.622Z,12.28
2023-05-07T13:43:10.004Z,11.68
2023-05-07T13:45:39.387Z,11.55
2023-05-07T13:48:09.420Z,11.97
2023-05-07T13:50:38.731Z,11.40
2023-05-07T13:53:09.662Z,11.65
2023-05-07T13:55:39.192Z,11.50
2023-05-07T13:58:08.569Z,10.98
2023-05-07T14:00:37.964Z,11.03
2023-05-07T14:03:08.314Z,11.48
2023-05-07T14:05:37.725Z,9.58
2023-05-07T14:08:08.980Z,9.85
2023-05-07T14:10:38.228Z,8.63
2023-05-07T14:13:07.861Z,7.83
2023-05-07T14:15:37.674Z,7.72
2023-05-07T14:18:08.211Z,6.72
2023-05-07T14:20:38.780Z,6.78
2023-05-07T14:23:08.460Z,6.30
2023-05-07T14:25:37.818Z,6.08
2023-05-07T14:28:08.796Z,6.30
2023-05-07T14:30:38.372Z,6.00
2023-05-07T14:33:08.104Z,5.67
2023-05-07T14:35:37.398Z,5.50
2023-05-07T14:38:07.026Z,5.47
2023-05-07T14:40:36.331Z,5.17
2023-05-07T14:43:05.646Z,4.67
2023-05-07T14:45:35.260Z,5.20
2023-05-07T14:48:05.343Z,4.78
2023-05-07T14:50:34.829Z,5.50
2023-05-07T14:53:04.891Z,6.10
2023-05-07T14:55:35.502Z,6.42
2023-05-07T14:58:04.855Z,6.17
2023-05-07T15:00:34.738Z,6.60
2023-05-07T15:03:09.117Z,7.00
2023-05-07T15:05:39.447Z,6.70
2023-05-07T15:08:08.715Z,6.87
2023-05-07T15:10:42.593Z,7.53
2023-05-07T15:13:15.916Z,7.60
2023-05-07T15:15:46.456Z,8.18
2023-05-07T15:18:16.247Z,8.95
2023-05-07T15:20:45.966Z,8.40
2023-05-07T15:23:15.305Z,9.33
2023-05-07T15:25:47.792Z,9.13
2023-05-07T15:28:17.582Z,9.43
2023-05-07T15:30:47.257Z,9.83
2023-05-07T15:33:16.761Z,10.65
2023-05-07T15:35:46.702Z,11.33
2023-05-07T15:38:16.856Z,13.22
2023-05-07T15:40:46.704Z,14.45
2023-05-07T15:43:16.234Z,14.40
2023-05-07T15:45:45.599Z,15.00
2023-05-07T15:48:14.895Z,16.60
2023-05-07T15:50:44.272Z,15.85
2023-05-07T15:53:13.885Z,16.82
2023-05-07T15:55:44.476Z,18.15
2023-05-07T15:58:13.983Z,21.17
2023-05-07T16:00:43.302Z,21.05
2023-05-07T16:03:13.105Z,20.80
2023-05-07T16:05:42.700Z,22.77
2023-05-07T16:08:13.135Z,22.30
2023-05-07T16:10:42.415Z,22.58
2023-05-07T16:13:12.413Z,22.07
2023-05-07T16:15:41.867Z,21.60
2023-05-07T16:18:12.389Z,22.55
2023-05-07T16:20:41.798Z,22.70
2023-05-07T16:23:13.179Z,22.77
2023-05-07T16:25:42.832Z,22.80
2023-05-07T16:28:12.386Z,22.77
2023-05-07T16:30:41.944Z,21.60
2023-05-07T16:33:11.397Z,21.40
2023-05-07T16:35:41.452Z,21.30
2023-05-07T16:38:11.669Z,21.23
2023-05-07T16:40:41.032Z,20.88
2023-05-07T16:43:10.782Z,19.65
2023-05-07T16:45:40.089Z,19.17
2023-05-07T16:48:09.413Z,18.80
2023-05-07T16:50:38.893Z,17.67
2023-05-07T16:53:08.215Z,18.62
2023-05-07T16:55:41.574Z,18.37
2023-05-07T16:58:12.672Z,18.23
2023-05-07T17:00:50.540Z,18.27
2023-05-07T17:03:13.083Z,18.00
2023-05-07T17:05:43.171Z,18.50
2023-05-07T17:08:14.068Z,19.42
2023-05-07T17:10:45.427Z,18.27
2023-05-07T17:13:15.843Z,17.20
2023-05-07T17:15:46.622Z,17.10
2023-05-07T17:18:16.073Z,16.62
2023-05-07T17:20:45.366Z,15.50
2023-05-07T17:23:15.704Z,15.78
2023-05-07T17:25:45.728Z,14.95
2023-05-07T17:28:15.592Z,13.70
2023-05-07T17:30:46.621Z,13.32
2023-05-07T17:33:21.582Z,13.75
2023-05-07T17:35:47.253Z,13.48
2023-05-07T17:38:16.534Z,14.05
2023-05-07T17:40:46.104Z,14.45
2023-05-07T17:43:15.854Z,13.95
2023-05-07T17:45:45.156Z,14.30
2023-05-07T17:48:15.053Z,15.13
2023-05-07T17:50:44.748Z,15.53
2023-05-07T17:53:14.117Z,14.95
2023-05-07T17:55:47.890Z,15.15
2023-05-07T17:58:17.190Z,15.13
2023-05-07T18:00:46.507Z,15.23
2023-05-07T18:03:16.126Z,14.38
2023-05-07T18:05:45.514Z,14.28
2023-05-07T18:08:14.989Z,13.85
2023-05-07T18:10:44.776Z,13.48
2023-05-07T18:13:14.407Z,13.00
2023-05-07T18:15:46.047Z,12.30
2023-05-07T18:18:15.862Z,13.00
2023-05-07T18:20:50.900Z,12.13
2023-05-07T18:23:20.222Z,11.95
2023-05-07T18:25:50.082Z,11.78
2023-05-07T18:28:19.355Z,12.45
2023-05-07T18:30:48.639Z,12.40
2023-05-07T18:33:18.065Z,12.23
2023-05-07T18:35:47.373Z,12.55
2023-05-07T18:38:16.645Z,12.98
2023-05-07T18:40:47.323Z,13.03
2023-05-07T18:43:18.241Z,13.00
2023-05-07T18:45:51.192Z,13.43
2023-05-07T18:48:20.632Z,12.68
2023-05-07T18:50:50.137Z,12.53
2023-05-07T18:53:19.526Z,13.45
2023-05-07T18:55:52.571Z,13.35
2023-05-07T18:58:21.921Z,13.35
2023-05-07T19:00:51.788Z,13.93
2023-05-07T19:03:21.097Z,13.50
2023-05-07T19:05:50.806Z,13.68
2023-05-07T19:08:20.722Z,12.82
2023-05-07T19:10:50.167Z,12.28
2023-05-07T19:13:19.619Z,13.40
2023-05-07T19:15:49.044Z,13.50
2023-05-07T19:18:18.565Z,12.53
2023-05-07T19:20:52.116Z,12.28
2023-05-07T19:23:20.764Z,11.97
2023-05-07T19:25:50.387Z,12.15
2023-05-07T19:28:20.158Z,11.50
2023-05-07T19:30:52.527Z,12.50
2023-05-07T19:33:23.591Z,12.05
2023-05-07T19:35:54.976Z,12.03
2023-05-07T19:38:24.490Z,11.83
2023-05-07T19:40:58.305Z,11.45
2023-05-07T19:43:31.512Z,10.98
2023-05-07T19:46:02.157Z,10.75
2023-05-07T19:48:31.967Z,11.08
2023-05-07T19:51:02.280Z,9.80
2023-05-07T19:53:32.051Z,11.03
2023-05-07T19:56:06.002Z,11.25
2023-05-07T19:58:36.780Z,12.28
2023-05-07T20:01:06.877Z,11.55
2023-05-07T20:03:37.349Z,11.78
2023-05-07T20:06:06.876Z,11.30
2023-05-07T20:08:36.280Z,10.75
2023-05-07T20:11:06.132Z,11.12
2023-05-07T20:13:35.781Z,11.80
2023-05-07T20:16:06.533Z,10.98
2023-05-07T20:18:36.659Z,11.25
2023-05-07T20:21:07.122Z,10.70
2023-05-07T20:23:36.803Z,11.65
2023-05-07T20:26:06.177Z,11.57
2023-05-07T20:28:37.903Z,13.08
2023-05-07T20:31:07.263Z,12.60
2023-05-07T20:33:39.505Z,11.68
2023-05-07T20:36:09.409Z,12.55
2023-05-07T20:38:39.440Z,12.90
2023-05-07T20:41:10.082Z,12.40
2023-05-07T20:43:39.855Z,12.28
2023-05-07T20:46:09.266Z,13.30
2023-05-07T20:48:38.812Z,13.43
2023-05-07T20:51:09.739Z,13.43
2023-05-07T20:53:40.828Z,12.90
2023-05-07T20:56:10.784Z,11.95
2023-05-07T20:58:41.810Z,13.43
2023-05-07T21:01:11.228Z,12.75
2023-05-07T21:03:40.601Z,14.18
2023-05-07T21:06:10.074Z,14.15
2023-05-07T21:08:39.673Z,13.75
2023-05-07T21:11:10.184Z,14.90
2023-05-07T21:13:39.539Z,13.70
2023-05-07T21:16:10.593Z,13.80
2023-05-07T21:18:40.242Z,13.88
2023-05-07T21:21:10.944Z,13.00
2023-05-07T21:23:40.326Z,13.70
2023-05-07T21:26:09.829Z,12.58
2023-05-07T21:28:39.316Z,13.48
2023-05-07T21:31:08.615Z,13.98
2023-05-07T21:33:37.978Z,14.10
2023-05-07T21:36:08.381Z,13.30
2023-05-07T21:38:41.051Z,14.40
2023-05-07T21:43:39.316Z,13.48
2023-05-07T21:46:09.911Z,13.80
2023-05-07T21:48:40.052Z,14.18
2023-05-07T21:51:10.118Z,14.33
2023-05-07T21:53:39.705Z,15.30
2023-05-07T21:56:09.076Z,14.65
2023-05-07T21:58:38.916Z,15.03
2023-05-07T22:01:09.880Z,13.30
2023-05-07T22:03:40.048Z,11.00
2023-05-07T22:06:09.452Z,11.90
2023-05-07T22:08:38.736Z,12.03
2023-05-07T22:11:08.153Z,12.58
2023-05-07T22:13:37.586Z,14.83
2023-05-07T22:16:07.258Z,14.30
2023-05-07T22:18:36.590Z,14.87
2023-05-07T22:21:06.821Z,15.63
2023-05-07T22:23:36.082Z,17.85
2023-05-07T22:26:13.401Z,16.50
2023-05-07T22:28:42.670Z,15.45
2023-05-07T22:31:12.263Z,15.78
2023-05-07T22:33:42.039Z,14.85
2023-05-07T22:36:11.407Z,15.45
2023-05-07T22:38:41.036Z,14.40
2023-05-07T22:41:10.331Z,14.03
2023-05-07T22:43:39.621Z,16.05
2023-05-07T22:46:09.152Z,15.08
2023-05-07T22:48:38.597Z,15.72
2023-05-07T22:51:09.843Z,16.20
2023-05-07T22:53:39.128Z,14.93
2023-05-07T22:56:09.548Z,13.72
2023-05-07T22:58:38.890Z,13.15
2023-05-07T23:01:15.500Z,13.83
2023-05-07T23:03:44.850Z,14.38
2023-05-07T23:06:14.559Z,15.93
2023-05-07T23:08:43.914Z,13.53
2023-05-07T23:11:13.210Z,12.20
2023-05-07T23:13:42.848Z,13.00
2023-05-07T23:16:12.380Z,12.47
2023-05-07T23:18:42.059Z,12.20
2023-05-07T23:21:11.904Z,12.60
2023-05-07T23:23:41.303Z,14.10
2023-05-07T23:26:10.864Z,16.77
2023-05-07T23:28:40.526Z,16.02
2023-05-07T23:31:14.007Z,15.80
2023-05-07T23:33:43.400Z,15.20
2023-05-07T23:36:12.784Z,14.78
2023-05-07T23:38:42.066Z,15.08
2023-05-07T23:41:11.922Z,14.05
2023-05-07T23:43:41.347Z,13.48
2023-05-07T23:46:10.663Z,15.05
2023-05-07T23:48:39.958Z,14.28
2023-05-07T23:51:09.527Z,14.98
2023-05-07T23:53:38.851Z,16.10
2023-05-07T23:56:08.236Z,13.95
2023-05-07T23:58:37.703Z,15.98
